KMEV/MEV METAR and TAF weather

Enter ICAO airport designator
Station Type Date Time Source
KMEV METAR 2020/09/20 11:35 UTC NOAA

KMEV 201135Z AUTO 12003KT 10SM OVC080 03/M03 A3013 RMK AO2


Station Type Date Time Source
KMEV Decoded METAR 2020/09/20 11:35 UTC NOAA

Station name not available
Sep 20, 2020 - 07:35 AM EDT / 2020.09.20 1135 UTC
Wind: from the ESE (120 degrees) at 3 MPH (3 KT):0
Visibility: 10 mile(s):0
Sky conditions: overcast
Temperature: 37 F (3 C)
Dew Point: 26 F (-3 C)
Relative Humidity: 64%
Pressure (altimeter): 30.13 in. Hg (1020 hPa)
ob: KMEV 201135Z AUTO 12003KT 10SM OVC080 03/M03 A3013 RMK AO2
cycle: 11

Station Type Date Time Source
KMEV TAF 2020/09/20 12:39 UTC NOAA

TAF KMEV 201136Z 2012/2112 14006KT P6SM BKN080
FM201800 28006KT 6SM HZ SKC
FM210300 VRB02KT 5SM HZ SKC

Example: see airport list